Terminal Aerodrome Forecast
Issued by NWS

Home | Current Version | Previous Version | Text Only | Print | Product List | Glossary On
Versions: 1 2 3 4 5 6 7 8 9 10 11 12 13 14 15 16 17 18 19 20 21 22 23 24 25 26 27 28
000
FTUS44 KCRP 282325
TAFLRD
TAF
KLRD 282325Z 2900/2924 10010KT P6SM BKN050
     FM290100 08009KT P6SM VCTS BKN050CB
     FM290300 08010KT P6SM -TSRA BKN035CB
      TEMPO 2903/2906 VRB20G30KT 2SM TSRA OVC025CB
     FM291400 01006KT P6SM -SHRA BKN025
     FM291800 01008KT P6SM OVC250=

USA.gov is the U.S. government's official web portal to all federal, state and local government web resources and services.